Time;durP1;ratioP1;P1;durP2;ratioP2;P2;SDS_P1;SDS_P2;PMS_P1;PMS_P2;Temp;Humidity;BMP_temperature;BMP_pressure;BME280_temperature;BME280_humidity;BME280_pressure;Samples;Min_cycle;Max_cycle;Signal;HPM_P1;HPM_P2
2022/08/14 10:28:43;;;;;;;6.63;5.03;;;;;;;39.99;18.74;99924.06;5047358;28;20384;-54
2022/08/14 10:31:15;;;;;;;6.90;4.93;;;;;;;39.72;19.10;99923.72;5046968;28;20033;-57
2022/08/14 10:33:42;;;;;;;6.93;5.20;;;;;;;38.35;20.04;99921.91;5047535;28;20549;-57
2022/08/14 10:36:08;;;;;;;4.90;4.47;;;;;;;37.58;21.25;99917.84;5026974;28;20513;-56
2022/08/14 10:38:35;;;;;;;5.82;4.78;;;;;;;37.76;21.18;99908.91;5042333;28;20038;-57
2022/08/14 10:41:14;;;;;;;5.87;4.97;;;;;;;39.30;19.98;99914.78;5026521;28;20056;-57
2022/08/14 10:43:41;;;;;;;7.40;5.43;;;;;;;40.96;18.62;99918.75;5027558;28;20045;-57
2022/08/14 10:46:16;;;;;;;6.67;5.10;;;;;;;42.17;17.59;99909.00;5026317;28;20045;-56
2022/08/14 10:49:01;;;;;;;5.43;4.97;;;;;;;42.64;16.70;99921.09;5026164;28;20284;-58
2022/08/14 10:51:29;;;;;;;7.22;5.10;;;;;;;40.98;17.37;99917.44;5027406;28;20057;-58
2022/08/14 10:53:57;;;;;;;6.72;4.90;;;;;;;39.35;19.10;99876.81;5027265;28;20048;-55
2022/08/14 10:56:32;;;;;;;7.45;5.07;;;;;;;39.72;19.16;99907.38;5027375;28;20571;-59
2022/08/14 10:59:05;;;;;;;9.05;4.80;;;;;;;39.45;19.24;99906.19;5027285;28;20041;-56
2022/08/14 11:01:39;;;;;;;6.30;4.88;;;;;;;39.72;19.12;99914.72;5027025;28;20132;-57
2022/08/14 11:04:04;;;;;;;6.05;5.53;;;;;;;38.10;20.22;99908.41;5027198;28;20042;-58
2022/08/14 11:06:32;;;;;;;7.75;5.55;;;;;;;37.40;20.76;99903.38;5026930;28;20521;-59
2022/08/14 11:08:58;;;;;;;6.07;4.88;;;;;;;37.39;21.08;99890.84;5027171;28;20045;-56
2022/08/14 11:11:26;;;;;;;7.65;5.05;;;;;;;37.52;21.74;99904.31;5027115;28;20052;-56
2022/08/14 11:13:56;;;;;;;6.63;4.75;;;;;;;37.85;21.14;99899.41;5026979;28;20033;-57
2022/08/14 11:16:23;;;;;;;4.80;4.30;;;;;;;37.54;21.07;99900.34;5026890;28;20160;-58
2022/08/14 11:18:50;;;;;;;5.18;4.30;;;;;;;36.65;22.02;99878.81;5026977;28;20088;-57
2022/08/14 11:21:19;;;;;;;4.60;4.20;;;;;;;36.12;22.75;99897.09;5026969;28;20402;-56
2022/08/14 11:23:48;;;;;;;6.53;4.95;;;;;;;36.31;23.13;99896.25;5026792;28;20045;-56
2022/08/14 11:26:19;;;;;;;6.97;4.53;;;;;;;36.82;21.78;99898.94;5026417;28;20144;-56
2022/08/14 11:28:48;;;;;;;5.43;4.82;;;;;;;36.78;21.79;99900.44;5026600;28;20041;-57
2022/08/14 11:31:19;;;;;;;4.93;4.30;;;;;;;37.14;21.62;99890.84;5025200;28;20410;-57
2022/08/14 11:33:52;;;;;;;4.82;4.32;;;;;;;38.04;21.03;99892.16;5041629;28;20512;-56
2022/08/14 11:36:22;;;;;;;6.55;4.97;;;;;;;38.46;20.41;99898.59;5060259;28;20042;-57
2022/08/14 11:38:48;;;;;;;6.38;5.00;;;;;;;38.14;20.28;99897.91;5019880;28;20046;-57
2022/08/14 11:41:17;;;;;;;5.75;4.20;;;;;;;37.10;21.58;99901.31;5013303;28;20471;-57
2022/08/14 11:43:49;;;;;;;7.15;4.43;;;;;;;36.30;22.31;99891.88;5011845;28;20045;-58
2022/08/14 11:46:15;;;;;;;5.47;4.60;;;;;;;35.22;23.37;99895.09;5028387;28;20042;-55
2022/08/14 11:48:49;;;;;;;6.88;4.35;;;;;;;34.80;23.70;99888.13;5028264;28;20046;-56
2022/08/14 11:51:22;;;;;;;6.15;4.65;;;;;;;34.48;24.15;99892.34;5013146;28;20045;-56
2022/08/14 11:54:01;;;;;;;5.53;5.03;;;;;;;34.73;23.73;99893.50;5013227;28;20532;-56
2022/08/14 11:56:41;;;;;;;6.45;4.85;;;;;;;35.12;23.60;99886.53;5011655;28;20168;-56
2022/08/14 11:59:16;;;;;;;6.18;5.00;;;;;;;36.15;22.54;99888.59;5013049;28;20041;-58
2022/08/14 12:01:44;;;;;;;6.03;5.20;;;;;;;36.26;22.68;99874.41;5012827;28;20188;-57
2022/08/14 12:04:16;;;;;;;5.35;4.90;;;;;;;37.25;21.87;99855.72;5012919;28;20057;-59
2022/08/14 12:06:54;;;;;;;4.60;4.10;;;;;;;37.53;21.35;99876.94;5012614;28;20053;-57
2022/08/14 12:09:34;;;;;;;5.95;4.88;;;;;;;36.09;22.26;99878.56;5043699;28;20046;-58
2022/08/14 12:12:12;;;;;;;7.15;4.95;;;;;;;35.67;22.71;99882.63;5012823;28;20049;-57
2022/08/14 12:14:58;;;;;;;5.90;4.82;;;;;;;35.70;22.91;99878.69;5012726;28;20184;-56
2022/08/14 12:17:26;;;;;;;5.13;4.50;;;;;;;35.92;22.68;99875.50;5011686;28;20398;-56
2022/08/14 12:19:54;;;;;;;8.43;5.05;;;;;;;35.73;23.48;99876.38;5012811;28;20033;-57
2022/08/14 12:22:36;;;;;;;5.55;4.88;;;;;;;35.83;23.27;99873.22;5012673;28;20461;-57
2022/08/14 12:25:06;;;;;;;5.32;4.82;;;;;;;35.34;23.76;99830.38;5012572;28;20037;-57
2022/08/14 12:27:42;;;;;;;5.00;4.57;;;;;;;35.28;24.05;99863.69;5012033;28;20285;-57
2022/08/14 12:30:12;;;;;;;5.13;4.60;;;;;;;35.21;23.54;99869.09;5012515;28;20044;-57
2022/08/14 12:32:42;;;;;;;5.60;4.70;;;;;;;35.09;23.99;99865.28;5012468;28;20042;-56
2022/08/14 12:35:09;;;;;;;5.25;4.30;;;;;;;35.02;23.95;99859.88;5020185;28;20033;-58
2022/08/14 12:37:35;;;;;;;5.03;4.50;;;;;;;35.08;23.83;99863.63;5031988;28;20033;-59
2022/08/14 12:40:11;;;;;;;4.97;4.57;;;;;;;35.10;23.81;99853.44;5032118;28;20044;-57
2022/08/14 12:42:38;;;;;;;5.45;4.60;;;;;;;35.23;23.58;99858.88;5032052;28;20059;-57
2022/08/14 12:45:05;;;;;;;7.10;5.07;;;;;;;35.60;23.41;99860.94;5032007;28;20072;-57
2022/08/14 12:47:31;;;;;;;5.95;4.45;;;;;;;36.27;23.23;99859.81;5031804;28;20048;-58
2022/08/14 12:49:57;;;;;;;6.45;5.43;;;;;;;36.89;22.45;99853.66;5031374;28;20041;-58
2022/08/14 12:52:33;;;;;;;4.75;4.30;;;;;;;37.35;21.83;99833.50;5031879;28;20139;-55
2022/08/14 12:55:00;;;;;;;4.30;3.92;;;;;;;37.61;21.91;99854.16;5031578;28;20040;-55
2022/08/14 12:57:38;;;;;;;5.88;4.97;;;;;;;37.29;21.83;99858.81;5031955;28;20048;-54
2022/08/14 13:00:16;;;;;;;5.95;4.70;;;;;;;36.86;22.25;99850.53;5031505;28;20038;-57
2022/08/14 13:02:44;;;;;;;11.85;5.00;;;;;;;36.96;22.19;99828.34;5012454;28;20057;-57
2022/08/14 13:05:12;;;;;;;5.13;4.63;;;;;;;37.63;21.82;99828.44;5011710;28;20049;-57
2022/08/14 13:07:42;;;;;;;5.55;4.80;;;;;;;37.49;22.03;99843.16;5011776;28;20038;-57
2022/08/14 13:10:10;;;;;;;8.68;4.70;;;;;;;36.94;22.12;99850.28;5011625;28;20050;-57
2022/08/14 13:12:37;;;;;;;5.95;4.07;;;;;;;36.74;22.56;99844.19;5010381;28;20466;-55
2022/08/14 13:15:06;;;;;;;5.75;4.30;;;;;;;36.35;23.18;99845.19;5010320;28;20041;-56
2022/08/14 13:17:39;;;;;;;7.68;4.65;;;;;;;36.13;23.53;99841.06;5010104;28;20057;-58
2022/08/14 13:20:09;;;;;;;7.20;4.28;;;;;;;35.36;23.84;99833.72;5024685;28;20049;-57
2022/08/14 13:22:37;;;;;;;5.13;4.63;;;;;;;34.94;24.79;99843.88;5027099;28;20063;-57
2022/08/14 13:25:03;;;;;;;;;;;;;;;34.39;24.91;99831.44;5029627;28;20048;-57
2022/08/14 13:27:32;;;;;;;6.18;4.10;;;;;;;34.10;25.67;99829.84;5017042;28;19925;-50
2022/08/14 13:29:59;;;;;;;5.38;4.32;;;;;;;34.16;26.07;99830.91;5030746;28;20456;-56
2022/08/14 13:32:27;;;;;;;6.88;4.53;;;;;;;34.08;26.74;99831.06;5029562;28;20083;-59
2022/08/14 13:34:53;;;;;;;6.15;4.15;;;;;;;33.77;27.32;99826.16;5025535;28;20045;-57
2022/08/14 13:37:19;;;;;;;4.80;4.30;;;;;;;33.51;27.92;99834.88;5020493;28;20040;-58
2022/08/14 13:39:49;;;;;;;4.78;4.30;;;;;;;32.75;28.56;99839.16;5030194;28;20406;-58
2022/08/14 13:42:22;;;;;;;7.88;4.82;;;;;;;32.24;29.04;99835.66;5023983;28;20399;-57
2022/08/14 13:44:50;;;;;;;8.30;5.07;;;;;;;31.88;29.57;99831.00;5029264;28;20037;-58
2022/08/14 13:47:19;;;;;;;6.13;4.60;;;;;;;31.55;30.13;99800.94;5030412;28;20051;-59
2022/08/14 13:49:49;;;;;;;5.97;4.50;;;;;;;31.55;30.41;99832.38;5030323;28;20048;-59
2022/08/14 13:52:18;;;;;;;9.30;4.90;;;;;;;31.42;30.73;99833.00;5019504;28;20046;-58
2022/08/14 13:54:45;;;;;;;5.82;5.10;;;;;;;31.01;31.33;99839.72;5030475;28;20099;-57
2022/08/14 13:57:12;;;;;;;10.05;5.75;;;;;;;30.73;31.36;99836.72;5017004;28;20453;-57
2022/08/14 13:59:44;;;;;;;6.82;4.88;;;;;;;30.43;31.72;99827.66;5010887;28;20091;-58
2022/08/14 14:02:10;;;;;;;10.95;7.03;;;;;;;29.96;32.30;99800.91;5023139;28;20045;-59
2022/08/14 14:04:42;;;;;;;11.82;5.20;;;;;;;30.13;32.54;99832.00;5030047;28;20041;-57
2022/08/14 14:07:13;;;;;;;6.72;4.72;;;;;;;30.11;32.58;99827.81;5029281;28;20041;-58
2022/08/14 14:09:42;;;;;;;8.50;4.80;;;;;;;30.02;32.85;99831.53;5030412;28;20041;-58
2022/08/14 14:12:08;;;;;;;5.82;4.93;;;;;;;29.93;32.66;99829.91;5020778;28;20539;-57
2022/08/14 14:14:40;;;;;;;10.30;4.63;;;;;;;29.62;33.39;99793.13;5028836;28;20077;-58
2022/08/14 14:17:07;;;;;;;9.10;4.70;;;;;;;29.67;33.48;99825.59;5029153;28;20045;-58
2022/08/14 14:19:34;;;;;;;7.68;4.70;;;;;;;29.57;33.61;99829.47;5029653;28;20042;-57
2022/08/14 14:22:07;;;;;;;7.47;5.13;;;;;;;29.46;34.03;99830.69;5026078;28;20496;-60
2022/08/14 14:24:33;;;;;;;11.98;5.22;;;;;;;29.24;33.92;99808.06;5030050;28;20574;-57
2022/08/14 14:27:01;;;;;;;11.15;5.40;;;;;;;29.33;34.20;99824.97;5020445;28;20050;-58
2022/08/14 14:29:31;;;;;;;;;;;;;;;29.25;34.12;99816.94;5030415;28;20067;-57
2022/08/14 14:31:58;;;;;;;9.13;4.97;;;;;;;29.16;34.21;99821.44;5016290;28;19918;-57
2022/08/14 14:34:26;;;;;;;5.30;4.80;;;;;;;29.12;34.65;99817.44;5025390;28;20045;-57
2022/08/14 14:36:57;;;;;;;10.93;5.07;;;;;;;29.08;35.05;99821.47;5029964;28;20291;-56
2022/08/14 14:39:24;;;;;;;8.35;4.60;;;;;;;28.97;35.19;99817.28;5029728;28;20433;-58
2022/08/14 14:41:54;;;;;;;7.45;5.05;;;;;;;28.88;35.31;99825.47;5019904;28;20042;-59
2022/08/14 14:44:25;;;;;;;9.38;5.30;;;;;;;28.79;35.44;99823.78;5028152;28;20075;-65
2022/08/14 14:46:51;;;;;;;8.60;4.57;;;;;;;28.76;35.60;99814.25;5030058;28;20041;-63
2022/08/14 14:49:18;;;;;;;6.82;5.28;;;;;;;28.69;35.86;99809.69;5029591;28;20830;-57
2022/08/14 14:51:45;;;;;;;6.75;4.20;;;;;;;28.63;36.03;99817.38;5023161;28;20602;-58
2022/08/14 14:54:12;;;;;;;9.20;4.72;;;;;;;28.54;36.12;99822.88;5029395;28;20052;-57
2022/08/14 14:56:41;;;;;;;8.05;4.70;;;;;;;28.44;36.25;99822.19;5023934;28;20736;-59
2022/08/14 14:59:07;;;;;;;6.35;5.30;;;;;;;28.36;36.22;99817.66;5025409;28;20520;-60
2022/08/14 15:01:34;;;;;;;6.82;4.72;;;;;;;28.26;36.38;99810.78;5052414;28;20069;-59
2022/08/14 15:04:02;;;;;;;6.53;4.53;;;;;;;28.17;36.38;99820.59;5028730;28;20132;-60
2022/08/14 15:06:30;;;;;;;5.20;4.18;;;;;;;28.08;36.45;99813.53;5027018;28;20501;-59
2022/08/14 15:08:57;;;;;;;6.50;4.45;;;;;;;28.01;36.51;99815.16;5020046;28;20190;-59
2022/08/14 15:11:25;;;;;;;9.70;4.80;;;;;;;27.76;36.41;99791.00;5023833;28;20089;-59
2022/08/14 15:13:51;;;;;;;6.38;4.93;;;;;;;27.72;36.74;99789.66;5025989;28;20535;-60
2022/08/14 15:16:17;;;;;;;6.78;6.03;;;;;;;27.81;36.82;99817.22;5031449;28;20041;-59
2022/08/14 15:18:44;;;;;;;8.95;5.30;;;;;;;27.71;37.44;99813.84;5027118;28;20068;-59
2022/08/14 15:21:12;;;;;;;11.50;7.38;;;;;;;27.63;37.43;99817.31;5026495;28;20132;-59
2022/08/14 15:23:38;;;;;;;8.15;5.88;;;;;;;27.58;37.74;99810.78;5030257;28;20041;-60
2022/08/14 15:26:04;;;;;;;12.35;6.43;;;;;;;27.34;38.07;99782.03;5015891;28;20037;-59
2022/08/14 15:28:35;;;;;;;7.60;4.47;;;;;;;27.43;38.00;99807.78;5026086;28;20535;-58
2022/08/14 15:31:03;;;;;;;6.18;4.43;;;;;;;27.38;37.92;99818.09;5030320;28;20543;-59
2022/08/14 15:36:14;;;;;;;7.20;4.40;;;;;;;27.23;38.08;99809.84;5028922;28;20060;-58
2022/08/14 15:38:39;;;;;;;6.95;4.25;;;;;;;27.18;38.40;99819.31;5028627;28;20729;-59
2022/08/14 15:41:06;;;;;;;10.00;4.50;;;;;;;27.11;38.75;99812.94;5017339;28;20780;-57
2022/08/14 15:43:32;;;;;;;9.30;4.63;;;;;;;27.03;38.87;99812.84;5028147;28;20595;-59
2022/08/14 15:46:00;;;;;;;6.75;5.18;;;;;;;26.94;38.85;99815.47;5027228;28;20124;-59
2022/08/14 15:48:26;;;;;;;7.40;4.97;;;;;;;26.88;38.75;99815.22;5026799;28;20074;-59
2022/08/14 15:50:54;;;;;;;4.82;4.40;;;;;;;26.88;38.86;99815.22;5029192;28;20651;-59
2022/08/14 15:53:21;;;;;;;10.00;4.38;;;;;;;26.82;39.24;99813.13;5024512;28;20049;-59
2022/08/14 15:55:47;;;;;;;6.25;4.63;;;;;;;26.45;39.45;99760.78;5029857;28;20037;-58
2022/08/14 15:58:13;;;;;;;11.40;4.57;;;;;;;26.73;39.56;99809.56;5022733;28;20044;-59
2022/08/14 16:03:23;;;;;;;5.20;4.70;;;;;;;26.63;40.05;99819.47;5029352;28;20049;-58
2022/08/14 16:05:50;;;;;;;11.73;5.40;;;;;;;26.58;40.27;99812.91;5031125;28;20088;-59
2022/08/14 16:08:15;;;;;;;6.80;6.10;;;;;;;26.53;40.73;99826.72;5028214;28;20072;-63
2022/08/14 16:10:44;;;;;;;11.43;5.93;;;;;;;26.47;40.91;99814.81;5021322;28;20439;-58
2022/08/14 16:13:10;;;;;;;6.88;5.15;;;;;;;26.42;41.37;99810.91;5017199;28;20049;-58
2022/08/14 16:15:38;;;;;;;9.88;6.03;;;;;;;26.25;41.09;99788.56;5029026;28;20402;-57
2022/08/14 16:18:04;;;;;;;7.93;5.35;;;;;;;26.22;41.41;99794.22;5023426;28;20544;-60
2022/08/14 16:20:33;;;;;;;12.27;5.88;;;;;;;26.33;41.81;99811.78;5023445;28;20038;-58
2022/08/14 16:23:03;;;;;;;8.50;5.32;;;;;;;26.32;41.97;99815.47;5026551;28;20037;-58
2022/08/14 16:25:30;;;;;;;10.93;5.38;;;;;;;26.02;41.98;99774.78;5022552;28;20048;-59
2022/08/14 16:27:58;;;;;;;8.00;5.60;;;;;;;26.25;42.37;99817.91;5019682;28;20054;-58
2022/08/14 16:30:24;;;;;;;6.43;5.13;;;;;;;26.19;42.23;99813.13;5025655;28;20484;-59
2022/08/14 16:32:51;;;;;;;7.72;5.68;;;;;;;25.88;41.70;99763.78;5028104;28;20045;-61
2022/08/14 16:35:17;;;;;;;8.52;4.50;;;;;;;26.17;41.77;99815.94;5023337;28;20045;-60
2022/08/14 16:37:43;;;;;;;11.95;5.20;;;;;;;26.00;41.39;99786.59;5029353;28;20048;-57
2022/08/14 16:40:10;;;;;;;13.25;5.82;;;;;;;26.08;41.97;99813.31;5029952;28;20406;-59
2022/08/14 16:42:39;;;;;;;11.55;5.00;;;;;;;26.06;42.89;99816.16;5029341;28;20041;-58
2022/08/14 16:45:08;;;;;;;10.98;5.15;;;;;;;26.00;43.53;99818.56;5029375;28;20100;-60
2022/08/14 16:47:34;;;;;;;5.90;5.00;;;;;;;25.93;43.16;99820.97;5021014;28;20037;-57
2022/08/14 16:50:01;;;;;;;9.40;5.85;;;;;;;25.97;42.19;99816.19;5026040;28;20547;-57
2022/08/14 16:52:28;;;;;;;7.95;4.97;;;;;;;25.96;42.40;99825.19;5030445;28;20141;-58
2022/08/14 16:54:55;;;;;;;12.60;7.88;;;;;;;25.95;42.86;99816.34;5029723;28;20492;-61
2022/08/14 16:57:23;;;;;;;21.10;13.77;;;;;;;25.93;43.45;99826.28;5027708;28;20038;-60
2022/08/14 16:59:52;;;;;;;19.88;12.65;;;;;;;25.89;43.74;99821.41;5023510;28;20521;-59
2022/08/14 17:02:41;;;;;;;19.08;14.02;;;;;;;25.59;43.98;99777.25;5023837;28;20096;-59
2022/08/14 17:05:16;;;;;;;;;;;;;;;25.81;44.02;99821.28;5029696;28;20052;-58
2022/08/14 17:08:05;;;;;;;22.08;15.38;;;;;;;25.70;45.04;99832.97;5027156;28;19943;-59
2022/08/14 17:10:33;;;;;;;23.52;12.30;;;;;;;25.62;45.63;99831.03;5025437;28;20479;-61
2022/08/14 17:13:17;;;;;;;34.72;12.10;;;;;;;25.34;46.03;99802.63;5022587;28;20044;-57
2022/08/14 17:16:16;;;;;;;20.20;7.60;;;;;;;25.56;45.31;99838.75;5040557;28;20072;-58
2022/08/14 17:18:45;;;;;;;16.33;9.00;;;;;;;25.53;45.39;99844.34;5023859;28;20088;-58
2022/08/14 17:21:21;;;;;;;19.00;9.55;;;;;;;25.48;45.66;99844.78;5024363;28;20132;-58
2022/08/14 17:23:49;;;;;;;19.63;9.10;;;;;;;25.46;45.91;99851.22;5021971;28;20056;-58
2022/08/14 17:26:43;;;;;;;18.33;9.32;;;;;;;25.43;46.06;99849.72;5029255;28;20037;-58
2022/08/14 17:29:22;;;;;;;16.42;11.73;;;;;;;25.26;45.94;99837.97;5027160;28;20111;-58
2022/08/14 17:31:52;;;;;;;15.85;9.65;;;;;;;25.37;45.82;99860.06;5022033;28;20037;-58
2022/08/14 17:34:19;;;;;;;17.30;8.27;;;;;;;25.32;45.97;99852.53;5021365;28;20099;-58
2022/08/14 17:36:52;;;;;;;17.20;9.25;;;;;;;25.29;45.72;99858.13;5023997;28;20037;-59
2022/08/14 17:39:19;;;;;;;18.25;9.23;;;;;;;25.27;45.57;99860.94;5024780;28;20045;-58
2022/08/14 17:41:48;;;;;;;15.35;9.43;;;;;;;25.24;45.73;99863.03;5018881;28;20050;-59
2022/08/14 17:44:29;;;;;;;11.57;6.68;;;;;;;25.20;45.54;99864.28;5026546;28;20517;-58
2022/08/14 17:46:58;;;;;;;10.25;7.63;;;;;;;25.14;45.69;99863.03;5023350;28;20037;-58
2022/08/14 17:49:37;;;;;;;13.82;7.60;;;;;;;25.13;45.51;99866.66;5026015;28;20056;-58
2022/08/14 17:52:09;;;;;;;12.05;7.40;;;;;;;25.12;45.69;99870.31;5024164;28;20041;-58
2022/08/14 17:54:55;;;;;;;15.38;8.70;;;;;;;25.09;46.18;99862.63;5027497;28;20608;-58
2022/08/14 17:57:24;;;;;;;12.07;7.78;;;;;;;25.08;46.13;99857.44;5021626;28;20517;-58
2022/08/14 17:59:53;;;;;;;12.88;7.63;;;;;;;25.05;46.39;99861.22;5027065;28;20049;-59
2022/08/14 18:02:26;;;;;;;13.80;9.00;;;;;;;25.00;46.55;99855.47;5028664;28;20044;-59
2022/08/14 18:04:59;;;;;;;10.13;7.38;;;;;;;24.94;46.85;99866.69;5029291;28;20111;-58
2022/08/14 18:07:26;;;;;;;16.13;8.25;;;;;;;24.89;46.98;99860.94;5024379;28;20040;-58
2022/08/14 18:09:55;;;;;;;17.83;9.82;;;;;;;24.86;47.16;99866.53;5030378;28;20045;-58
2022/08/14 18:12:22;;;;;;;16.08;7.82;;;;;;;24.84;46.93;99858.66;5023883;28;20045;-59
2022/08/14 18:14:51;;;;;;;8.27;7.10;;;;;;;24.53;47.25;99811.91;5022694;28;20217;-60
2022/08/14 18:17:19;;;;;;;10.52;7.00;;;;;;;24.82;47.09;99870.41;5012301;28;20033;-58
2022/08/14 18:19:49;;;;;;;12.95;7.38;;;;;;;24.81;47.28;99860.75;5029177;28;20124;-58
2022/08/14 18:22:16;;;;;;;15.77;7.72;;;;;;;24.80;47.28;99856.44;5029939;28;20044;-59
2022/08/14 18:24:43;;;;;;;11.85;7.60;;;;;;;24.53;47.45;99817.22;5026526;28;20879;-58
2022/08/14 18:27:18;;;;;;;8.50;6.80;;;;;;;24.76;47.39;99858.50;5014506;28;20081;-58
2022/08/14 18:29:50;;;;;;;10.43;7.50;;;;;;;24.74;47.41;99860.47;5024337;28;20081;-58
2022/08/14 18:32:26;;;;;;;13.70;7.70;;;;;;;24.72;47.47;99854.44;5028111;28;20091;-59
2022/08/14 18:35:03;;;;;;;13.77;7.57;;;;;;;24.70;47.56;99848.44;5030202;28;20099;-59
2022/08/14 18:37:30;;;;;;;11.25;8.43;;;;;;;24.68;47.62;99858.38;5030006;28;20037;-60
2022/08/14 18:40:28;;;;;;;10.77;7.45;;;;;;;24.66;47.93;99859.47;5012594;28;20072;-58
2022/08/14 18:42:56;;;;;;;13.73;7.82;;;;;;;24.62;47.89;99848.28;5024218;28;20049;-59
2022/08/14 18:45:33;;;;;;;10.07;7.15;;;;;;;24.60;47.89;99854.72;5030119;28;20037;-59
2022/08/14 18:48:17;;;;;;;12.05;7.65;;;;;;;24.55;47.99;99856.97;5029888;28;20045;-58
2022/08/14 18:51:09;;;;;;;10.82;8.23;;;;;;;24.51;48.03;99850.22;5033380;28;20048;-59
2022/08/14 18:53:51;;;;;;;15.75;8.52;;;;;;;24.47;48.16;99849.66;5031943;28;20051;-58
2022/08/14 18:56:17;;;;;;;13.93;7.43;;;;;;;24.44;48.04;99855.25;5030257;28;20041;-58
2022/08/14 18:58:51;;;;;;;12.38;8.48;;;;;;;24.41;48.39;99855.50;5033807;28;20041;-59
2022/08/14 19:01:28;;;;;;;14.07;9.30;;;;;;;24.39;48.46;99863.63;5031806;28;20041;-59
2022/08/14 19:03:55;;;;;;;14.10;8.32;;;;;;;24.36;48.65;99855.09;5051267;28;20597;-57
2022/08/14 19:06:38;;;;;;;9.50;7.80;;;;;;;24.36;48.68;99871.88;5012702;28;20076;-59
2022/08/14 19:09:05;;;;;;;14.65;8.55;;;;;;;24.34;48.70;99862.34;5045242;28;20044;-59
2022/08/14 19:11:30;;;;;;;11.32;8.65;;;;;;;24.32;48.61;99869.63;5023751;28;20050;-59
2022/08/14 19:13:57;;;;;;;16.65;8.32;;;;;;;24.30;48.68;99864.44;5033220;28;20045;-59
2022/08/14 19:16:38;;;;;;;18.00;8.40;;;;;;;24.35;48.80;99870.19;5033360;28;20064;-59
2022/08/14 19:19:06;;;;;;;10.02;6.68;;;;;;;24.30;48.69;99863.59;5033313;28;20051;-60
2022/08/14 19:21:35;;;;;;;17.08;7.25;;;;;;;24.32;48.61;99867.81;5022620;28;20052;-59
2022/08/14 19:24:06;;;;;;;10.55;6.88;;;;;;;24.32;48.62;99874.94;5042605;28;20048;-59
2022/08/14 19:26:33;;;;;;;14.90;7.80;;;;;;;24.32;48.47;99877.59;5029553;28;20049;-58
2022/08/14 19:29:22;;;;;;;11.02;7.32;;;;;;;24.16;48.65;99850.66;5015198;28;20053;-59
2022/08/14 19:31:49;;;;;;;9.48;6.93;;;;;;;24.08;48.41;99841.53;5032572;28;20041;-59
2022/08/14 19:34:52;;;;;;;12.73;8.90;;;;;;;24.25;48.51;99874.63;5033429;28;20040;-58
2022/08/14 19:37:44;;;;;;;11.55;6.75;;;;;;;24.21;48.80;99881.19;5033240;28;20068;-58
2022/08/14 19:40:11;;;;;;;12.75;7.43;;;;;;;23.93;48.77;99839.38;5032539;28;20117;-59
2022/08/14 19:42:40;;;;;;;11.90;8.23;;;;;;;24.15;48.81;99886.16;5046720;28;20049;-58
2022/08/14 19:45:13;;;;;;;15.40;8.55;;;;;;;24.12;48.94;99887.28;5031269;28;20517;-57
2022/08/14 19:47:39;;;;;;;12.80;8.30;;;;;;;24.08;49.20;99886.69;5015456;28;21099;-58
2022/08/14 19:50:07;;;;;;;14.10;9.38;;;;;;;24.04;49.17;99884.44;5031876;28;20547;-59
2022/08/14 19:52:35;;;;;;;10.80;7.28;;;;;;;23.87;49.25;99861.16;5021338;28;20049;-58
2022/08/14 19:55:06;;;;;;;14.45;9.48;;;;;;;23.99;49.38;99879.53;5013154;28;20133;-59
2022/08/14 19:57:31;;;;;;;17.75;11.77;;;;;;;23.80;49.30;99855.56;5020072;28;20120;-59
2022/08/14 20:00:08;;;;;;;12.40;8.02;;;;;;;23.80;49.35;99860.03;5018823;28;20494;-58
2022/08/14 20:02:46;;;;;;;11.32;7.65;;;;;;;23.94;49.23;99881.75;5030417;28;20143;-59
2022/08/14 20:05:12;;;;;;;15.07;8.63;;;;;;;23.93;49.06;99881.88;5032365;28;20045;-59
2022/08/14 20:07:41;;;;;;;15.20;7.35;;;;;;;23.90;49.49;99884.81;5032567;28;20076;-59
2022/08/14 20:10:10;;;;;;;13.70;7.82;;;;;;;23.89;49.46;99883.97;5031023;28;20049;-58
2022/08/14 20:12:36;;;;;;;16.73;7.88;;;;;;;23.87;49.46;99888.56;5026767;28;20480;-59
2022/08/14 20:15:13;;;;;;;11.55;7.97;;;;;;;23.86;49.65;99888.72;5032507;28;20045;-58
2022/08/14 20:17:39;;;;;;;12.30;7.60;;;;;;;23.66;49.71;99855.06;5032438;28;20060;-59
2022/08/14 20:20:21;;;;;;;12.43;7.38;;;;;;;23.81;49.99;99894.41;5031603;28;20045;-59
2022/08/14 20:22:47;;;;;;;13.50;8.55;;;;;;;23.81;49.88;99888.25;5029426;28;20045;-59
2022/08/14 20:25:18;;;;;;;16.60;10.18;;;;;;;23.78;50.03;99886.69;5012389;28;20212;-60
2022/08/14 20:27:48;;;;;;;13.57;7.95;;;;;;;23.78;49.86;99891.16;5021503;28;20532;-60
2022/08/14 20:30:18;;;;;;;11.55;7.38;;;;;;;23.78;49.74;99891.16;5031004;28;20041;-60
2022/08/14 20:32:56;;;;;;;13.02;7.25;;;;;;;23.79;49.95;99893.69;5030156;28;20098;-58
2022/08/14 20:35:26;;;;;;;12.02;7.68;;;;;;;23.62;50.00;99865.09;5016121;28;20096;-57
2022/08/14 20:38:00;;;;;;;12.73;7.65;;;;;;;23.59;50.33;99862.72;5032166;28;20044;-58
2022/08/14 20:40:27;;;;;;;10.10;7.30;;;;;;;23.68;50.49;99891.13;5032098;28;20041;-58
2022/08/14 20:45:40;;;;;;;11.98;7.00;;;;;;;23.69;50.50;99895.47;5011058;28;20048;-57
2022/08/14 20:48:07;;;;;;;9.97;7.07;;;;;;;23.66;50.61;99894.88;5021289;28;20136;-58
2022/08/14 20:50:33;;;;;;;9.27;6.43;;;;;;;23.45;50.80;99868.28;5031954;28;20357;-58
2022/08/14 20:53:01;;;;;;;13.68;6.50;;;;;;;23.57;50.83;99897.34;5031114;28;20029;-59
2022/08/14 20:55:33;;;;;;;12.35;7.03;;;;;;;23.52;51.03;99896.03;5030571;28;20539;-60
2022/08/14 20:58:04;;;;;;;11.90;7.10;;;;;;;23.50;51.14;99898.00;5027902;28;20061;-59
2022/08/14 21:00:37;;;;;;;11.45;7.57;;;;;;;23.47;51.20;99907.03;5012980;28;20083;-58
2022/08/14 21:03:26;;;;;;;10.75;6.75;;;;;;;23.44;51.47;99901.97;5030384;28;20653;-58
2022/08/14 21:05:53;;;;;;;11.50;7.10;;;;;;;23.22;51.75;99878.19;5031739;28;20038;-59
2022/08/14 21:08:20;;;;;;;14.90;8.38;;;;;;;23.39;51.69;99903.34;5026932;28;20057;-58
2022/08/14 21:10:46;;;;;;;12.48;8.18;;;;;;;23.39;51.81;99906.00;5010091;28;20044;-59
2022/08/14 21:13:16;;;;;;;13.02;8.60;;;;;;;23.39;51.70;99903.34;5027814;28;20072;-58
2022/08/14 21:15:45;;;;;;;11.65;8.45;;;;;;;23.37;51.49;99900.81;5029829;28;20049;-59
2022/08/14 21:18:14;;;;;;;11.23;7.57;;;;;;;23.35;51.85;99905.38;5030467;28;20061;-59
2022/08/14 21:20:41;;;;;;;12.05;7.25;;;;;;;23.30;52.07;99902.28;5028251;28;20037;-59
2022/08/14 21:23:08;;;;;;;11.98;7.32;;;;;;;23.09;52.28;99885.47;5025430;28;20037;-59
2022/08/14 21:25:34;;;;;;;12.20;8.43;;;;;;;23.18;52.63;99906.81;5030072;28;20071;-59
2022/08/14 21:28:04;;;;;;;14.57;9.00;;;;;;;23.17;52.80;99909.59;5021436;28;20057;-59
2022/08/14 21:30:30;;;;;;;14.10;8.60;;;;;;;23.14;52.71;99915.13;5029573;28;20041;-59
2022/08/14 21:32:56;;;;;;;18.38;11.35;;;;;;;23.10;52.97;99917.19;5031048;28;20195;-60
2022/08/14 21:35:21;;;;;;;14.35;8.50;;;;;;;23.07;53.12;99909.50;5031271;28;20553;-59
2022/08/14 21:37:49;;;;;;;14.52;8.15;;;;;;;23.02;53.34;99917.00;5030326;28;20081;-59
2022/08/14 21:40:18;;;;;;;14.82;7.63;;;;;;;22.97;53.60;99910.38;5030578;28;20041;-59
2022/08/14 21:42:44;;;;;;;;;;;;;;;22.93;53.71;99914.22;5027843;28;20038;-59
2022/08/14 21:45:12;;;;;;;13.95;8.00;;;;;;;22.84;53.79;99915.00;5026368;28;19923;-59
2022/08/14 21:47:39;;;;;;;11.35;8.13;;;;;;;22.81;54.12;99913.44;5030806;28;20048;-58
2022/08/14 21:50:08;;;;;;;12.73;9.13;;;;;;;22.62;54.34;99889.34;5030841;28;20136;-58
2022/08/14 21:52:35;;;;;;;;;;;;;;;22.74;54.42;99912.25;5014191;28;20649;-58
2022/08/14 21:55:08;;;;;;;11.02;8.32;;;;;;;22.66;54.45;99912.81;5010916;28;19917;-59
2022/08/14 21:57:35;;;;;;;12.77;8.95;;;;;;;22.61;54.84;99911.53;5017671;28;20429;-59
2022/08/14 22:00:04;;;;;;;13.73;8.23;;;;;;;22.57;54.71;99915.38;5033394;28;20080;-56
2022/08/14 22:02:32;;;;;;;12.68;7.95;;;;;;;22.54;55.10;99918.28;5027925;28;20045;-58
2022/08/14 22:04:58;;;;;;;18.13;7.97;;;;;;;22.50;55.16;99915.03;5016304;28;20076;-60
2022/08/14 22:07:25;;;;;;;11.15;8.30;;;;;;;22.34;55.29;99891.56;5013304;28;20134;-59
2022/08/14 22:09:51;;;;;;;12.23;8.73;;;;;;;22.44;55.60;99906.72;5030366;28;20049;-59
2022/08/14 22:12:17;;;;;;;13.38;8.63;;;;;;;22.41;55.57;99913.09;5029247;28;20041;-58
2022/08/14 22:14:44;;;;;;;14.52;8.60;;;;;;;22.38;55.67;99906.25;5028252;28;20441;-58
2022/08/14 22:17:12;;;;;;;14.43;8.75;;;;;;;22.35;55.78;99911.78;5029840;28;20045;-59
2022/08/14 22:19:38;;;;;;;12.93;7.90;;;;;;;22.33;55.87;99916.38;5010834;28;20179;-59